createdAt,value
2023-04-15T00:00:33.221Z,0.00
2023-04-15T00:01:33.241Z,0.00
2023-04-15T00:02:33.326Z,0.00
2023-04-15T00:03:33.473Z,0.00
2023-04-15T00:04:33.298Z,0.00
2023-04-15T00:05:33.171Z,0.00
2023-04-15T00:06:33.155Z,0.00
2023-04-15T00:07:33.191Z,0.00
2023-04-15T00:08:33.165Z,0.00
2023-04-15T00:09:33.134Z,0.00
2023-04-15T00:10:33.153Z,0.00
2023-04-15T00:11:33.317Z,0.00
2023-04-15T00:12:33.116Z,0.00
2023-04-15T00:13:33.098Z,0.00
2023-04-15T00:14:33.112Z,0.00
2023-04-15T00:15:33.058Z,0.00
2023-04-15T00:16:33.095Z,0.00
2023-04-15T00:17:33.074Z,0.00
2023-04-15T00:18:33.071Z,0.00
2023-04-15T00:19:33.041Z,0.00
2023-04-15T00:20:33.018Z,0.00
2023-04-15T00:21:32.989Z,0.00
2023-04-15T00:22:32.998Z,0.00
2023-04-15T00:23:33.014Z,0.00
2023-04-15T00:24:32.972Z,0.00
2023-04-15T00:25:32.962Z,0.00
2023-04-15T00:26:32.935Z,0.00
2023-04-15T00:27:32.917Z,0.00
2023-04-15T00:28:32.919Z,0.00
2023-04-15T00:29:32.888Z,0.00
2023-04-15T00:30:32.978Z,0.00
2023-04-15T00:31:32.893Z,0.00
2023-04-15T00:32:32.926Z,0.00
2023-04-15T00:33:32.883Z,0.00
2023-04-15T00:34:32.862Z,0.00
2023-04-15T00:35:32.861Z,0.00
2023-04-15T00:36:32.859Z,0.00
2023-04-15T00:37:32.828Z,0.00
2023-04-15T00:38:32.801Z,0.00
2023-04-15T00:39:32.811Z,0.00
2023-04-15T00:40:32.764Z,0.00
2023-04-15T00:41:32.762Z,0.00
2023-04-15T00:42:32.746Z,0.00
2023-04-15T00:43:32.745Z,0.00
2023-04-15T00:44:32.729Z,0.00
2023-04-15T00:45:32.747Z,0.00
2023-04-15T00:46:32.704Z,0.00
2023-04-15T00:47:32.696Z,0.00
2023-04-15T00:48:32.690Z,0.00
2023-04-15T00:49:32.675Z,0.00
2023-04-15T00:50:32.677Z,0.00
2023-04-15T00:51:32.667Z,0.00
2023-04-15T00:52:32.639Z,0.00
2023-04-15T00:53:32.642Z,0.00
2023-04-15T00:54:32.614Z,0.00
2023-04-15T00:55:32.605Z,0.00
2023-04-15T00:56:32.604Z,0.00
2023-04-15T00:57:32.583Z,0.00
2023-04-15T00:58:32.584Z,0.00
2023-04-15T00:59:32.562Z,0.00
2023-04-15T01:00:32.566Z,0.00
2023-04-15T01:01:32.580Z,0.00
2023-04-15T01:02:32.684Z,0.00
2023-04-15T01:03:32.695Z,0.00
2023-04-15T01:04:32.514Z,0.00
2023-04-15T01:05:32.486Z,0.00
2023-04-15T01:06:32.508Z,0.00
2023-04-15T01:07:32.467Z,0.00
2023-04-15T01:08:32.448Z,0.00
2023-04-15T01:09:32.448Z,0.00
2023-04-15T01:10:32.431Z,0.00
2023-04-15T01:11:32.430Z,0.00
2023-04-15T01:12:32.410Z,0.00
2023-04-15T01:13:32.422Z,0.00
2023-04-15T01:14:32.402Z,0.00
2023-04-15T01:15:32.578Z,0.00
2023-04-15T01:16:32.515Z,0.00
2023-04-15T01:17:32.371Z,0.00
2023-04-15T01:18:32.359Z,0.00
2023-04-15T01:19:32.334Z,0.00
2023-04-15T01:20:32.325Z,0.00
2023-04-15T01:21:32.356Z,0.00
2023-04-15T01:22:32.296Z,0.00
2023-04-15T01:23:32.282Z,0.00
2023-04-15T01:24:32.255Z,0.00
2023-04-15T01:25:32.274Z,0.00
2023-04-15T01:26:32.249Z,0.00
2023-04-15T01:27:32.238Z,0.00
2023-04-15T01:28:32.231Z,0.00
2023-04-15T01:29:32.427Z,0.00
2023-04-15T01:30:32.197Z,0.00
2023-04-15T01:31:32.223Z,0.00
2023-04-15T01:32:32.243Z,0.00
2023-04-15T01:33:32.166Z,0.00
2023-04-15T01:34:33.633Z,0.00
2023-04-15T01:35:32.166Z,0.00
2023-04-15T01:36:32.113Z,0.00
2023-04-15T01:37:32.315Z,0.00
2023-04-15T01:38:32.133Z,0.00
2023-04-15T01:39:32.096Z,0.00
2023-04-15T01:40:32.083Z,0.00
2023-04-15T01:41:32.064Z,0.00
2023-04-15T01:42:32.060Z,0.00
2023-04-15T01:43:32.049Z,0.00
2023-04-15T01:44:32.044Z,0.00
2023-04-15T01:45:32.022Z,0.00
2023-04-15T01:46:32.031Z,0.00
2023-04-15T01:47:32.020Z,0.00
2023-04-15T01:48:31.993Z,0.00
2023-04-15T01:49:31.963Z,0.00
2023-04-15T01:50:32.171Z,0.00
2023-04-15T01:51:31.949Z,0.00
2023-04-15T01:52:31.940Z,0.00
2023-04-15T01:53:31.932Z,0.00
2023-04-15T01:54:31.952Z,0.00
2023-04-15T01:55:31.898Z,0.00
2023-04-15T01:56:31.894Z,0.00
2023-04-15T01:57:31.879Z,0.00
2023-04-15T01:58:31.879Z,0.00
2023-04-15T01:59:31.853Z,0.00
2023-04-15T02:00:31.851Z,0.00
2023-04-15T02:01:31.884Z,0.00
2023-04-15T02:02:31.972Z,0.00
2023-04-15T02:03:32.059Z,0.00
2023-04-15T02:04:31.820Z,0.00
2023-04-15T02:05:31.813Z,0.00
2023-04-15T02:06:31.790Z,0.00
2023-04-15T02:07:31.785Z,0.00
2023-04-15T02:08:31.748Z,0.00
2023-04-15T02:09:31.746Z,0.00
2023-04-15T02:10:31.755Z,0.00
2023-04-15T02:11:31.728Z,0.00
2023-04-15T02:13:04.958Z,0.00
2023-04-15T02:13:31.708Z,0.00
2023-04-15T02:14:31.690Z,0.00
2023-04-15T02:15:31.688Z,0.00
2023-04-15T02:16:31.753Z,0.00
2023-04-15T02:17:31.687Z,0.00
2023-04-15T02:18:31.672Z,0.00
2023-04-15T02:19:31.631Z,0.00
2023-04-15T02:20:31.645Z,0.00
2023-04-15T02:21:31.608Z,0.00
2023-04-15T02:22:31.603Z,0.00
2023-04-15T02:23:31.578Z,0.00
2023-04-15T02:24:31.621Z,0.00
2023-04-15T02:25:31.569Z,0.00
2023-04-15T02:26:31.573Z,0.00
2023-04-15T02:27:31.543Z,0.00
2023-04-15T02:28:31.526Z,0.00
2023-04-15T02:29:31.536Z,0.00
2023-04-15T02:30:31.504Z,0.00
2023-04-15T02:31:31.518Z,0.00
2023-04-15T02:32:31.504Z,0.00
2023-04-15T02:33:31.466Z,0.00
2023-04-15T02:34:31.470Z,0.00
2023-04-15T02:35:31.465Z,0.00
2023-04-15T02:36:31.435Z,0.00
2023-04-15T02:37:31.410Z,0.00
2023-04-15T02:38:31.406Z,0.00
2023-04-15T02:39:31.404Z,0.00
2023-04-15T02:40:31.388Z,0.00
2023-04-15T02:41:31.381Z,0.00
2023-04-15T02:42:31.373Z,0.00
2023-04-15T02:43:31.351Z,0.00
2023-04-15T02:44:31.328Z,0.00
2023-04-15T02:45:31.325Z,0.00
2023-04-15T02:46:31.362Z,0.00
2023-04-15T02:47:31.366Z,0.00
2023-04-15T02:48:31.303Z,0.00
2023-04-15T02:49:31.295Z,0.00
2023-04-15T02:50:31.279Z,0.00
2023-04-15T02:51:31.262Z,0.00
2023-04-15T02:52:31.257Z,0.00
2023-04-15T02:53:31.236Z,0.00
2023-04-15T02:54:31.211Z,0.00
2023-04-15T02:55:31.216Z,0.00
2023-04-15T02:56:31.201Z,0.00
2023-04-15T02:57:31.186Z,0.00
2023-04-15T02:58:31.189Z,0.00
2023-04-15T02:59:31.162Z,0.00
2023-04-15T03:00:31.147Z,0.00
2023-04-15T03:01:31.168Z,0.00
2023-04-15T03:02:31.210Z,0.00
2023-04-15T03:03:31.229Z,0.00
2023-04-15T03:04:31.099Z,0.00
2023-04-15T03:05:31.096Z,0.00
2023-04-15T03:06:31.279Z,0.00
2023-04-15T03:07:31.082Z,0.00
2023-04-15T03:08:31.062Z,0.00
2023-04-15T03:09:31.058Z,0.00
2023-04-15T03:10:31.030Z,0.00
2023-04-15T03:11:31.015Z,0.00
2023-04-15T03:12:31.000Z,0.00
2023-04-15T03:13:30.994Z,0.00
2023-04-15T03:14:31.018Z,0.00
2023-04-15T03:15:30.989Z,0.00
2023-04-15T03:16:30.964Z,0.00
2023-04-15T03:17:30.987Z,0.00
2023-04-15T03:18:30.933Z,0.00
2023-04-15T03:19:30.924Z,0.00
2023-04-15T03:20:30.949Z,0.00
2023-04-15T03:21:30.893Z,0.00
2023-04-15T03:22:30.883Z,0.00
2023-04-15T03:23:30.888Z,0.00
2023-04-15T03:24:30.870Z,0.00
2023-04-15T03:25:30.854Z,0.00
2023-04-15T03:26:30.849Z,0.00
2023-04-15T03:27:30.832Z,0.00
2023-04-15T03:28:30.825Z,0.00
2023-04-15T03:29:30.812Z,0.00
2023-04-15T03:30:30.814Z,0.00
2023-04-15T03:31:30.829Z,0.00
2023-04-15T03:32:30.787Z,0.00
2023-04-15T03:33:30.778Z,0.00
2023-04-15T03:34:30.744Z,0.00
2023-04-15T03:35:30.739Z,0.00
2023-04-15T03:36:30.721Z,0.00
2023-04-15T03:37:30.721Z,0.00
2023-04-15T03:38:30.719Z,0.00
2023-04-15T03:39:30.698Z,0.00
2023-04-15T03:40:30.696Z,0.00
2023-04-15T03:41:30.674Z,0.00
2023-04-15T03:42:30.668Z,0.00
2023-04-15T03:43:30.641Z,0.00
2023-04-15T03:44:30.633Z,0.00
2023-04-15T03:45:30.614Z,0.00
2023-04-15T03:46:30.694Z,0.00
2023-04-15T03:47:30.705Z,0.00
2023-04-15T03:48:30.603Z,0.00
2023-04-15T03:49:30.578Z,0.00
2023-04-15T03:50:30.573Z,0.00
2023-04-15T03:51:30.571Z,0.00
2023-04-15T03:52:30.550Z,0.00
2023-04-15T03:53:30.550Z,0.00
2023-04-15T03:54:30.520Z,0.00
2023-04-15T03:55:30.523Z,0.00
2023-04-15T03:56:30.523Z,0.00
2023-04-15T03:57:30.675Z,0.00
2023-04-15T03:58:30.469Z,0.00
2023-04-15T03:59:30.449Z,0.00
2023-04-15T04:00:30.466Z,0.00
2023-04-15T04:01:30.443Z,0.00
2023-04-15T04:02:30.658Z,0.00
2023-04-15T04:03:30.615Z,0.00
2023-04-15T04:04:30.505Z,0.00
2023-04-15T04:05:30.398Z,0.00
2023-04-15T04:06:30.574Z,0.00
2023-04-15T04:07:30.371Z,4.00
2023-04-15T04:08:30.344Z,4.00
2023-04-15T04:09:30.336Z,0.00
2023-04-15T04:10:30.362Z,0.00
2023-04-15T04:11:30.318Z,4.00
2023-04-15T04:12:30.302Z,4.00
2023-04-15T04:13:30.312Z,4.00
2023-04-15T04:14:30.280Z,4.00
2023-04-15T04:15:30.334Z,4.00
2023-04-15T04:16:30.264Z,8.00
2023-04-15T04:17:30.275Z,4.00
2023-04-15T04:18:30.255Z,4.00
2023-04-15T04:19:30.255Z,8.00
2023-04-15T04:20:30.238Z,8.00
2023-04-15T04:21:30.416Z,8.00
2023-04-15T04:22:30.224Z,8.00
2023-04-15T04:23:30.391Z,8.00
2023-04-15T04:24:30.197Z,12.00
2023-04-15T04:25:30.184Z,12.00
2023-04-15T04:26:30.157Z,16.00
2023-04-15T04:27:30.147Z,16.00
2023-04-15T04:28:30.153Z,16.00
2023-04-15T04:29:30.110Z,16.00
2023-04-15T04:30:30.094Z,20.00
2023-04-15T04:31:30.147Z,20.00
2023-04-15T04:32:30.199Z,20.00
2023-04-15T04:33:30.059Z,24.00
2023-04-15T04:34:30.074Z,20.00
2023-04-15T04:35:30.053Z,24.00
2023-04-15T04:36:30.045Z,24.00
2023-04-15T04:37:30.042Z,24.00
2023-04-15T04:38:30.027Z,28.00
2023-04-15T04:39:29.975Z,32.00
2023-04-15T04:40:29.983Z,36.00
2023-04-15T04:41:29.979Z,36.00
2023-04-15T04:42:29.940Z,40.00
2023-04-15T04:43:29.943Z,40.00
2023-04-15T04:44:29.922Z,44.00
2023-04-15T04:45:29.944Z,48.00
2023-04-15T04:46:29.907Z,52.00
2023-04-15T04:47:29.996Z,52.00
2023-04-15T04:48:29.869Z,52.00
2023-04-15T04:49:29.870Z,52.00
2023-04-15T04:50:29.886Z,56.00
2023-04-15T04:51:29.819Z,56.00
2023-04-15T04:52:29.805Z,56.00
2023-04-15T04:53:29.811Z,56.00
2023-04-15T04:54:29.805Z,56.00
2023-04-15T04:55:29.766Z,52.00
2023-04-15T04:56:29.784Z,48.00
2023-04-15T04:57:29.742Z,44.00
2023-04-15T04:58:29.797Z,44.00
2023-04-15T04:59:29.744Z,44.00
2023-04-15T05:00:29.749Z,48.00
2023-04-15T05:01:29.755Z,48.00
2023-04-15T05:02:29.851Z,48.00
2023-04-15T05:03:29.901Z,48.00
2023-04-15T05:04:29.723Z,52.00
2023-04-15T05:05:29.657Z,56.00
2023-04-15T05:06:29.687Z,56.00
2023-04-15T05:07:29.653Z,56.00
2023-04-15T05:08:29.626Z,64.00
2023-04-15T05:09:29.603Z,68.00
2023-04-15T05:10:29.623Z,72.00
2023-04-15T05:11:29.600Z,76.00
2023-04-15T05:12:29.603Z,84.00
2023-04-15T05:13:29.569Z,88.00
2023-04-15T05:14:29.555Z,88.00
2023-04-15T05:15:29.568Z,88.00
2023-04-15T05:16:29.544Z,88.00
2023-04-15T05:17:29.557Z,84.00
2023-04-15T05:18:29.506Z,84.00
2023-04-15T05:19:29.489Z,84.00
2023-04-15T05:20:29.490Z,84.00
2023-04-15T05:21:29.476Z,88.00
2023-04-15T05:22:29.517Z,100.00
2023-04-15T05:23:29.465Z,108.00
2023-04-15T05:24:29.440Z,112.00
2023-04-15T05:25:29.424Z,120.00
2023-04-15T05:26:29.422Z,116.00
2023-04-15T05:27:29.391Z,120.00
2023-04-15T05:28:29.405Z,116.00
2023-04-15T05:29:29.389Z,116.00
2023-04-15T05:30:29.373Z,112.00
2023-04-15T05:31:29.434Z,116.00
2023-04-15T05:32:29.417Z,116.00
2023-04-15T05:33:29.338Z,120.00
2023-04-15T05:34:29.341Z,120.00
2023-04-15T05:35:29.309Z,124.00
2023-04-15T05:36:29.290Z,128.00
2023-04-15T05:37:29.320Z,132.00
2023-04-15T05:38:29.302Z,136.00
2023-04-15T05:39:29.265Z,132.00
2023-04-15T05:40:29.289Z,128.00
2023-04-15T05:41:29.285Z,128.00
2023-04-15T05:42:29.251Z,124.00
2023-04-15T05:43:29.234Z,120.00
2023-04-15T05:44:29.211Z,120.00
2023-04-15T05:45:29.221Z,124.00
2023-04-15T05:46:29.237Z,132.00
2023-04-15T05:47:29.227Z,132.00
2023-04-15T05:48:29.200Z,132.00
2023-04-15T05:49:29.135Z,136.00
2023-04-15T05:50:29.151Z,136.00
2023-04-15T05:51:29.117Z,148.00
2023-04-15T05:52:29.112Z,164.00
2023-04-15T05:53:29.118Z,176.00
2023-04-15T05:54:29.097Z,192.00
2023-04-15T05:55:29.072Z,212.00
2023-04-15T05:56:29.110Z,228.00
2023-04-15T05:57:29.068Z,244.00
2023-04-15T05:58:29.039Z,252.00
2023-04-15T05:59:29.033Z,264.00
2023-04-15T06:00:29.061Z,252.00
2023-04-15T06:01:29.010Z,260.00
2023-04-15T06:02:29.103Z,264.00
2023-04-15T06:03:29.134Z,264.00
2023-04-15T06:04:29.145Z,264.00
2023-04-15T06:05:28.976Z,264.00
2023-04-15T06:06:28.917Z,260.00
2023-04-15T06:07:28.944Z,272.00
2023-04-15T06:08:28.929Z,276.00
2023-04-15T06:09:28.935Z,276.00
2023-04-15T06:10:29.033Z,268.00
2023-04-15T06:11:28.897Z,268.00
2023-04-15T06:12:28.896Z,268.00
2023-04-15T06:13:28.846Z,276.00
2023-04-15T06:14:28.864Z,292.00
2023-04-15T06:15:28.847Z,324.00
2023-04-15T06:16:28.919Z,332.00
2023-04-15T06:17:28.888Z,340.00
2023-04-15T06:18:28.897Z,356.00
2023-04-15T06:19:28.831Z,360.00
2023-04-15T06:20:28.843Z,356.00
2023-04-15T06:21:28.761Z,364.00
2023-04-15T06:22:28.768Z,368.00
2023-04-15T06:23:28.736Z,356.00
2023-04-15T06:24:28.712Z,340.00
2023-04-15T06:25:28.712Z,340.00
2023-04-15T06:26:28.706Z,324.00
2023-04-15T06:27:28.665Z,312.00
2023-04-15T06:28:28.789Z,304.00
2023-04-15T06:29:28.704Z,316.00
2023-04-15T06:30:28.687Z,320.00
2023-04-15T06:31:28.682Z,328.00
2023-04-15T06:32:28.701Z,332.00
2023-04-15T06:33:28.648Z,352.00
2023-04-15T06:34:28.609Z,364.00
2023-04-15T06:35:28.571Z,388.00
2023-04-15T06:36:28.576Z,408.00
2023-04-15T06:37:28.662Z,400.00
2023-04-15T06:38:28.652Z,408.00
2023-04-15T06:39:28.563Z,420.00
2023-04-15T06:40:28.555Z,444.00
2023-04-15T06:41:28.556Z,440.00
2023-04-15T06:42:28.535Z,472.00
2023-04-15T06:43:28.681Z,464.00
2023-04-15T06:44:28.506Z,464.00
2023-04-15T06:45:28.547Z,480.00
2023-04-15T06:46:28.494Z,524.00
2023-04-15T06:47:28.494Z,592.00
2023-04-15T06:48:28.564Z,616.00
2023-04-15T06:49:28.432Z,636.00
2023-04-15T06:50:28.437Z,668.00
2023-04-15T06:51:28.409Z,664.00
2023-04-15T06:52:28.456Z,592.00
2023-04-15T06:53:28.366Z,580.00
2023-04-15T06:54:28.372Z,564.00
2023-04-15T06:55:28.382Z,568.00
2023-04-15T06:56:28.340Z,568.00
2023-04-15T06:57:28.326Z,560.00
2023-04-15T06:58:28.456Z,580.00
2023-04-15T06:59:28.314Z,592.00
2023-04-15T07:00:28.313Z,596.00
2023-04-15T07:01:28.415Z,608.00
2023-04-15T07:02:28.445Z,640.00
2023-04-15T07:03:28.284Z,648.00
2023-04-15T07:04:28.302Z,624.00
2023-04-15T07:05:28.214Z,640.00
2023-04-15T07:06:28.261Z,636.00
2023-04-15T07:07:28.219Z,592.00
2023-04-15T07:08:28.396Z,604.00
2023-04-15T07:09:28.384Z,616.00
2023-04-15T07:10:28.413Z,608.00
2023-04-15T07:11:28.174Z,632.00
2023-04-15T07:12:28.160Z,648.00
2023-04-15T07:13:28.147Z,688.00
2023-04-15T07:14:28.155Z,724.00
2023-04-15T07:15:28.136Z,716.00
2023-04-15T07:16:29.882Z,688.00
2023-04-15T07:17:28.121Z,696.00
2023-04-15T07:18:28.103Z,664.00
2023-04-15T07:19:28.099Z,652.00
2023-04-15T07:20:28.062Z,628.00
2023-04-15T07:21:28.034Z,620.00
2023-04-15T07:22:28.013Z,596.00
2023-04-15T07:23:27.994Z,620.00
2023-04-15T07:24:28.244Z,664.00
2023-04-15T07:25:28.013Z,716.00
2023-04-15T07:26:27.968Z,756.00
2023-04-15T07:27:27.975Z,788.00
2023-04-15T07:28:27.954Z,808.00
2023-04-15T07:29:27.996Z,764.00
2023-04-15T07:30:27.963Z,828.00
2023-04-15T07:31:28.193Z,868.00
2023-04-15T07:32:27.926Z,908.00
2023-04-15T07:33:27.887Z,984.00
2023-04-15T07:34:27.886Z,948.00
2023-04-15T07:35:27.893Z,976.00
2023-04-15T07:36:27.872Z,900.00
2023-04-15T07:37:27.863Z,936.00
2023-04-15T07:38:28.246Z,836.00
2023-04-15T07:39:27.822Z,816.00
2023-04-15T07:40:27.869Z,736.00
2023-04-15T07:41:27.842Z,696.00
2023-04-15T07:42:27.778Z,660.00
2023-04-15T07:43:27.802Z,596.00
2023-04-15T07:44:27.758Z,568.00
2023-04-15T07:45:27.773Z,644.00
2023-04-15T07:46:27.990Z,700.00
2023-04-15T07:47:27.802Z,688.00
2023-04-15T07:48:27.727Z,640.00
2023-04-15T07:49:27.725Z,628.00
2023-04-15T07:50:27.700Z,632.00
2023-04-15T07:51:27.688Z,688.00
2023-04-15T07:52:27.704Z,724.00
2023-04-15T07:53:27.878Z,716.00
2023-04-15T07:54:27.633Z,780.00
2023-04-15T07:55:28.324Z,816.00
2023-04-15T07:56:27.614Z,800.00
2023-04-15T07:57:27.623Z,860.00
2023-04-15T07:58:27.601Z,920.00
2023-04-15T07:59:27.584Z,928.00
2023-04-15T08:00:27.569Z,960.00
2023-04-15T08:01:27.595Z,1052.00
2023-04-15T08:02:27.689Z,1040.00
2023-04-15T08:03:27.661Z,1096.00
2023-04-15T08:04:27.758Z,1136.00
2023-04-15T08:05:27.521Z,1132.00
2023-04-15T08:06:27.514Z,1052.00
2023-04-15T08:07:27.501Z,996.00
2023-04-15T08:08:27.472Z,924.00
2023-04-15T08:09:27.495Z,896.00
2023-04-15T08:10:27.463Z,904.00
2023-04-15T08:11:27.444Z,920.00
2023-04-15T08:12:27.416Z,908.00
2023-04-15T08:13:27.420Z,872.00
2023-04-15T08:14:27.396Z,804.00
2023-04-15T08:15:27.385Z,744.00
2023-04-15T08:16:27.421Z,704.00
2023-04-15T08:17:27.432Z,664.00
2023-04-15T08:18:27.401Z,612.00
2023-04-15T08:19:27.331Z,608.00
2023-04-15T08:20:27.330Z,600.00
2023-04-15T08:21:27.316Z,600.00
2023-04-15T08:22:27.324Z,604.00
2023-04-15T08:23:27.289Z,616.00
2023-04-15T08:24:27.308Z,628.00
2023-04-15T08:25:27.271Z,656.00
2023-04-15T08:26:27.280Z,688.00
2023-04-15T08:27:27.283Z,720.00
2023-04-15T08:28:27.234Z,720.00
2023-04-15T08:29:27.226Z,688.00
2023-04-15T08:30:27.244Z,648.00
2023-04-15T08:31:27.248Z,632.00
2023-04-15T08:32:27.256Z,608.00
2023-04-15T08:33:27.168Z,584.00
2023-04-15T08:34:27.195Z,580.00
2023-04-15T08:35:27.162Z,600.00
2023-04-15T08:36:27.145Z,644.00
2023-04-15T08:37:27.129Z,652.00
2023-04-15T08:38:27.161Z,644.00
2023-04-15T08:39:27.098Z,616.00
2023-04-15T08:40:27.101Z,596.00
2023-04-15T08:41:27.308Z,620.00
2023-04-15T08:42:27.103Z,636.00
2023-04-15T08:43:27.065Z,644.00
2023-04-15T08:44:27.049Z,700.00
2023-04-15T08:45:27.237Z,724.00
2023-04-15T08:46:27.070Z,712.00
2023-04-15T08:47:27.049Z,688.00
2023-04-15T08:48:27.006Z,688.00
2023-04-15T08:49:27.001Z,692.00
2023-04-15T08:50:27.009Z,740.00
2023-04-15T08:51:26.980Z,816.00
2023-04-15T08:52:26.957Z,864.00
2023-04-15T08:53:26.943Z,956.00
2023-04-15T08:54:26.933Z,1020.00
2023-04-15T08:55:26.920Z,1136.00
2023-04-15T08:56:27.111Z,1176.00
2023-04-15T08:57:26.910Z,1200.00
2023-04-15T08:58:26.893Z,1164.00
2023-04-15T08:59:26.883Z,1040.00
2023-04-15T09:00:26.870Z,912.00
2023-04-15T09:01:26.954Z,840.00
2023-04-15T09:02:27.012Z,828.00
2023-04-15T09:03:27.000Z,872.00
2023-04-15T09:04:26.835Z,868.00
2023-04-15T09:05:26.813Z,940.00
2023-04-15T09:06:27.027Z,1012.00
2023-04-15T09:07:27.012Z,1096.00
2023-04-15T09:08:26.837Z,1144.00
2023-04-15T09:09:26.773Z,1264.00
2023-04-15T09:10:26.786Z,1400.00
2023-04-15T09:11:26.751Z,1364.00
2023-04-15T09:12:26.772Z,1252.00
2023-04-15T09:13:26.726Z,1140.00
2023-04-15T09:14:26.731Z,1004.00
2023-04-15T09:15:26.723Z,868.00
2023-04-15T09:16:26.716Z,788.00
2023-04-15T09:17:26.749Z,724.00
2023-04-15T09:18:26.671Z,712.00
2023-04-15T09:19:26.664Z,628.00
2023-04-15T09:20:26.672Z,584.00
2023-04-15T09:21:26.670Z,560.00
2023-04-15T09:22:26.685Z,544.00
2023-04-15T09:23:26.628Z,536.00
2023-04-15T09:24:26.646Z,544.00
2023-04-15T09:25:26.621Z,568.00
2023-04-15T09:26:26.576Z,640.00
2023-04-15T09:27:26.547Z,716.00
2023-04-15T09:28:26.545Z,824.00
2023-04-15T09:29:26.564Z,960.00
2023-04-15T09:30:26.544Z,1116.00
2023-04-15T09:31:26.590Z,1304.00
2023-04-15T09:32:26.595Z,1440.00
2023-04-15T09:33:26.492Z,1540.00
2023-04-15T09:34:26.571Z,1616.00
2023-04-15T09:35:26.576Z,1704.00
2023-04-15T09:36:26.471Z,1848.00
2023-04-15T09:37:32.492Z,1980.00
2023-04-15T09:38:26.492Z,2060.00
2023-04-15T09:39:26.467Z,2012.00
2023-04-15T09:40:26.437Z,1888.00
2023-04-15T09:41:26.472Z,1880.00
2023-04-15T09:42:26.390Z,1872.00
2023-04-15T09:43:26.392Z,1892.00
2023-04-15T09:44:26.406Z,1888.00
2023-04-15T09:45:29.354Z,1864.00
2023-04-15T09:46:26.380Z,1684.00
2023-04-15T09:47:26.340Z,1624.00
2023-04-15T09:48:26.352Z,1652.00
2023-04-15T09:49:26.329Z,1792.00
2023-04-15T09:50:26.306Z,1836.00
2023-04-15T09:51:26.321Z,1800.00
2023-04-15T09:52:26.379Z,1704.00
2023-04-15T09:53:26.267Z,1696.00
2023-04-15T09:54:26.259Z,1680.00
2023-04-15T09:55:26.232Z,1592.00
2023-04-15T09:56:26.238Z,1496.00
2023-04-15T09:57:26.234Z,1400.00
2023-04-15T09:58:26.204Z,1348.00
2023-04-15T09:59:26.208Z,1340.00
2023-04-15T10:00:26.196Z,1420.00
2023-04-15T10:01:26.206Z,1532.00
2023-04-15T10:02:26.285Z,1596.00
2023-04-15T10:03:26.438Z,1612.00
2023-04-15T10:04:26.306Z,1556.00
2023-04-15T10:05:26.144Z,1592.00
2023-04-15T10:06:26.160Z,1652.00
2023-04-15T10:07:26.149Z,1700.00
2023-04-15T10:08:26.132Z,1956.00
2023-04-15T10:09:26.088Z,2172.00
2023-04-15T10:10:26.155Z,2276.00
2023-04-15T10:11:26.277Z,2172.00
2023-04-15T10:12:26.084Z,2076.00
2023-04-15T10:13:26.077Z,2076.00
2023-04-15T10:14:26.044Z,2124.00
2023-04-15T10:15:26.069Z,2180.00
2023-04-15T10:16:26.077Z,2248.00
2023-04-15T10:17:26.047Z,2196.00
2023-04-15T10:18:26.004Z,2208.00
2023-04-15T10:19:25.986Z,2152.00
2023-04-15T10:20:26.011Z,2016.00
2023-04-15T10:21:26.004Z,1912.00
2023-04-15T10:22:25.988Z,1860.00
2023-04-15T10:23:26.005Z,1780.00
2023-04-15T10:24:25.931Z,1640.00
2023-04-15T10:25:25.939Z,1468.00
2023-04-15T10:26:25.916Z,1380.00
2023-04-15T10:27:25.935Z,1396.00
2023-04-15T10:28:25.924Z,1340.00
2023-04-15T10:29:25.939Z,1360.00
2023-04-15T10:30:25.897Z,1452.00
2023-04-15T10:31:25.938Z,1456.00
2023-04-15T10:32:25.901Z,1588.00
2023-04-15T10:33:25.845Z,1744.00
2023-04-15T10:34:25.873Z,1912.00
2023-04-15T10:35:25.831Z,2016.00
2023-04-15T10:36:25.822Z,2180.00
2023-04-15T10:37:25.804Z,2244.00
2023-04-15T10:38:25.828Z,2160.00
2023-04-15T10:39:25.766Z,2076.00
2023-04-15T10:40:25.800Z,2020.00
2023-04-15T10:41:25.749Z,1968.00
2023-04-15T10:42:25.756Z,1892.00
2023-04-15T10:43:25.727Z,1748.00
2023-04-15T10:44:25.730Z,1612.00
2023-04-15T10:45:25.711Z,1548.00
2023-04-15T10:46:25.878Z,1536.00
2023-04-15T10:47:25.711Z,1516.00
2023-04-15T10:48:25.657Z,1528.00
2023-04-15T10:49:25.673Z,1520.00
2023-04-15T10:50:25.669Z,1488.00
2023-04-15T10:51:25.632Z,1428.00
2023-04-15T10:52:25.626Z,1392.00
2023-04-15T10:53:25.614Z,1412.00
2023-04-15T10:54:25.614Z,1432.00
2023-04-15T10:55:25.604Z,1428.00
2023-04-15T10:56:25.580Z,1444.00
2023-04-15T10:57:25.574Z,1472.00
2023-04-15T10:58:25.635Z,1456.00
2023-04-15T10:59:26.009Z,1452.00
2023-04-15T11:00:25.547Z,1444.00
2023-04-15T11:01:25.580Z,1408.00
2023-04-15T11:02:25.712Z,1428.00
2023-04-15T11:03:25.586Z,1536.00
2023-04-15T11:04:25.615Z,1688.00
2023-04-15T11:05:25.577Z,1776.00
2023-04-15T11:06:25.492Z,1780.00
2023-04-15T11:07:25.510Z,1788.00
2023-04-15T11:08:25.473Z,1864.00
2023-04-15T11:09:25.441Z,1984.00
2023-04-15T11:10:25.458Z,2048.00
2023-04-15T11:11:25.448Z,2028.00
2023-04-15T11:12:25.464Z,2012.00
2023-04-15T11:13:25.416Z,2004.00
2023-04-15T11:14:25.446Z,1984.00
2023-04-15T11:15:25.418Z,1996.00
2023-04-15T11:16:25.409Z,1944.00
2023-04-15T11:17:25.423Z,1872.00
2023-04-15T11:18:25.358Z,1832.00
2023-04-15T11:19:25.348Z,1812.00
2023-04-15T11:20:25.367Z,1788.00
2023-04-15T11:21:25.323Z,1784.00
2023-04-15T11:22:25.312Z,1772.00
2023-04-15T11:23:25.282Z,1724.00
2023-04-15T11:24:25.368Z,1656.00
2023-04-15T11:25:25.466Z,1560.00
2023-04-15T11:26:25.267Z,1532.00
2023-04-15T11:27:25.279Z,1500.00
2023-04-15T11:28:25.293Z,1412.00
2023-04-15T11:29:25.225Z,1432.00
2023-04-15T11:30:25.219Z,1472.00
2023-04-15T11:31:25.244Z,1424.00
2023-04-15T11:32:25.242Z,1444.00
2023-04-15T11:33:25.227Z,1548.00
2023-04-15T11:34:25.188Z,1520.00
2023-04-15T11:35:25.202Z,1500.00
2023-04-15T11:36:25.188Z,1524.00
2023-04-15T11:37:25.163Z,1456.00
2023-04-15T11:38:25.160Z,1448.00
2023-04-15T11:39:25.121Z,1468.00
2023-04-15T11:40:25.118Z,1364.00
2023-04-15T11:41:25.096Z,1376.00
2023-04-15T11:42:25.087Z,1384.00
2023-04-15T11:43:25.106Z,1348.00
2023-04-15T11:44:25.081Z,1336.00
2023-04-15T11:45:25.079Z,1344.00
2023-04-15T11:46:25.059Z,1388.00
2023-04-15T11:47:25.165Z,1392.00
2023-04-15T11:48:25.038Z,1400.00
2023-04-15T11:49:25.026Z,1420.00
2023-04-15T11:50:25.035Z,1428.00
2023-04-15T11:51:25.057Z,1416.00
2023-04-15T11:52:24.992Z,1460.00
2023-04-15T11:53:25.008Z,1444.00
2023-04-15T11:54:24.960Z,1436.00
2023-04-15T11:55:24.969Z,1436.00
2023-04-15T11:56:24.930Z,1492.00
2023-04-15T11:57:24.940Z,1440.00
2023-04-15T11:58:24.956Z,1348.00
2023-04-15T11:59:28.199Z,1280.00
2023-04-15T12:00:24.906Z,1212.00
2023-04-15T12:01:24.894Z,1208.00
2023-04-15T12:02:25.076Z,1124.00
2023-04-15T12:03:25.305Z,1120.00
2023-04-15T12:04:25.954Z,1176.00
2023-04-15T12:05:25.102Z,1148.00
2023-04-15T12:06:24.853Z,1192.00
2023-04-15T12:07:24.849Z,1204.00
2023-04-15T12:08:24.850Z,1168.00
2023-04-15T12:09:24.814Z,1160.00
2023-04-15T12:10:24.824Z,1168.00
2023-04-15T12:11:24.988Z,1184.00
2023-04-15T12:12:24.784Z,1132.00
2023-04-15T12:13:24.759Z,1120.00
2023-04-15T12:14:24.763Z,1172.00
2023-04-15T12:15:24.740Z,1116.00
2023-04-15T12:16:24.770Z,1112.00
2023-04-15T12:17:24.766Z,1104.00
2023-04-15T12:18:24.774Z,1160.00
2023-04-15T12:19:24.736Z,1208.00
2023-04-15T12:20:24.718Z,1216.00
2023-04-15T12:21:24.670Z,1200.00
2023-04-15T12:22:24.700Z,1192.00
2023-04-15T12:23:24.678Z,1156.00
2023-04-15T12:24:24.646Z,1140.00
2023-04-15T12:25:24.669Z,1088.00
2023-04-15T12:26:24.625Z,1160.00
2023-04-15T12:27:24.810Z,1156.00
2023-04-15T12:28:24.607Z,1156.00
2023-04-15T12:29:24.620Z,1120.00
2023-04-15T12:30:24.599Z,1064.00
2023-04-15T12:31:24.598Z,996.00
2023-04-15T12:32:24.635Z,908.00
2023-04-15T12:33:24.568Z,852.00
2023-04-15T12:34:24.586Z,872.00
2023-04-15T12:35:24.527Z,936.00
2023-04-15T12:36:24.508Z,1012.00
2023-04-15T12:37:24.541Z,1068.00
2023-04-15T12:38:24.696Z,1148.00
2023-04-15T12:39:24.524Z,1168.00
2023-04-15T12:40:24.511Z,1120.00